Terminal Aerodrome Forecast
Issued by NWS Chicago, IL

Home | Current Version | Previous Version | Graphics & Text | Print | Product List | Glossary On
Versions: 1 2 3 4 5 6 7 8 9 10 11 12 13 14 15 16 17 18 19 20 21 22
246
FTUS43 KLOT 240838 AAA
TAFRFD
TAF AMD
KRFD 240838Z 2409/2506 18008KT P6SM SCT250
     FM241300 19013G21KT P6SM SCT200
     FM241700 20017G29KT P6SM SCT100 SCT200
     FM250000 24014KT P6SM SCT080 BKN120
     FM250300 30016G25KT P6SM FEW250=

USA.gov is the U.S. government's official web portal to all federal, state and local government web resources and services.